createdAt,value
2022-09-11T00:01:03.685Z,14.73
2022-09-11T00:03:31.515Z,14.73
2022-09-11T00:06:03.690Z,14.62
2022-09-11T00:08:32.034Z,14.70
2022-09-11T00:11:05.022Z,14.61
2022-09-11T00:13:33.071Z,14.76
2022-09-11T00:16:03.196Z,14.70
2022-09-11T00:18:30.987Z,14.56
2022-09-11T00:20:59.297Z,14.49
2022-09-11T00:23:28.278Z,14.42
2022-09-11T00:25:55.975Z,14.37
2022-09-11T00:28:26.229Z,14.40
2022-09-11T00:31:00.210Z,14.50
2022-09-11T00:33:29.724Z,14.42
2022-09-11T00:35:59.423Z,14.57
2022-09-11T00:38:28.218Z,14.71
2022-09-11T00:40:57.837Z,14.61
2022-09-11T00:43:26.316Z,14.61
2022-09-11T00:45:58.520Z,14.58
2022-09-11T00:48:31.857Z,14.57
2022-09-11T00:51:04.656Z,14.51
2022-09-11T00:53:36.914Z,14.59
2022-09-11T00:56:09.708Z,14.64
2022-09-11T00:58:40.501Z,14.72
2022-09-11T01:01:09.122Z,14.68
2022-09-11T01:03:38.246Z,14.77
2022-09-11T01:06:06.978Z,14.65
2022-09-11T01:08:38.241Z,14.61
2022-09-11T01:11:20.492Z,14.57
2022-09-11T01:13:53.141Z,14.49
2022-09-11T01:16:28.185Z,14.49
2022-09-11T01:19:05.632Z,14.54
2022-09-11T01:22:10.431Z,14.49
2022-09-11T01:24:56.452Z,14.52
2022-09-11T01:27:52.543Z,14.49
2022-09-11T01:30:22.269Z,14.52
2022-09-11T01:33:11.262Z,14.56
2022-09-11T01:35:52.802Z,14.53
2022-09-11T01:38:29.302Z,14.47
2022-09-11T01:41:01.587Z,14.59
2022-09-11T01:43:34.016Z,14.54
2022-09-11T01:46:04.441Z,14.55
2022-09-11T01:48:39.074Z,14.53
2022-09-11T01:51:10.284Z,14.53
2022-09-11T01:53:45.890Z,14.52
2022-09-11T01:56:23.376Z,14.51
2022-09-11T01:58:57.541Z,14.47
2022-09-11T02:01:31.194Z,14.53
2022-09-11T02:04:07.400Z,14.50
2022-09-11T02:06:38.383Z,14.64
2022-09-11T02:09:10.235Z,14.65
2022-09-11T02:11:41.673Z,14.64
2022-09-11T02:14:17.862Z,14.71
2022-09-11T02:16:49.935Z,14.73
2022-09-11T02:19:19.585Z,14.82
2022-09-11T02:21:50.829Z,14.76
2022-09-11T02:24:19.926Z,14.75
2022-09-11T02:26:52.575Z,14.69
2022-09-11T02:29:22.136Z,14.74
2022-09-11T02:31:50.601Z,14.81
2022-09-11T02:34:19.198Z,14.81
2022-09-11T02:37:11.481Z,14.87
2022-09-11T02:40:04.529Z,14.81
2022-09-11T02:42:43.889Z,14.80
2022-09-11T02:45:26.179Z,14.81
2022-09-11T02:47:59.781Z,14.84
2022-09-11T02:50:33.536Z,14.79
2022-09-11T02:53:07.564Z,14.80
2022-09-11T02:55:50.911Z,14.82
2022-09-11T02:58:23.331Z,14.88
2022-09-11T03:00:53.351Z,14.92
2022-09-11T03:03:21.355Z,14.95
2022-09-11T03:05:49.227Z,14.87
2022-09-11T03:08:17.861Z,14.91
2022-09-11T03:10:46.696Z,14.93
2022-09-11T03:13:15.296Z,14.87
2022-09-11T03:15:43.527Z,14.89
2022-09-11T03:18:13.685Z,14.97
2022-09-11T03:20:41.344Z,14.91
2022-09-11T03:23:09.556Z,15.04
2022-09-11T03:25:37.247Z,15.03
2022-09-11T03:28:05.098Z,15.04
2022-09-11T03:30:33.865Z,15.13
2022-09-11T03:33:01.785Z,15.06
2022-09-11T03:35:30.824Z,15.04
2022-09-11T03:37:58.588Z,15.11
2022-09-11T03:40:26.326Z,15.07
2022-09-11T03:42:54.114Z,15.11
2022-09-11T03:45:22.261Z,15.14
2022-09-11T03:47:50.022Z,15.00
2022-09-11T03:50:17.728Z,15.08
2022-09-11T03:52:46.807Z,15.00
2022-09-11T03:55:14.521Z,14.96
2022-09-11T03:57:42.184Z,15.00
2022-09-11T04:00:11.225Z,14.99
2022-09-11T04:02:38.909Z,14.95
2022-09-11T04:05:07.738Z,14.90
2022-09-11T04:07:35.692Z,14.75
2022-09-11T04:10:05.197Z,14.77
2022-09-11T04:12:33.300Z,14.72
2022-09-11T04:15:02.206Z,14.70
2022-09-11T04:17:30.547Z,14.60
2022-09-11T04:19:58.942Z,14.48
2022-09-11T04:22:27.177Z,14.59
2022-09-11T04:24:54.981Z,14.46
2022-09-11T04:27:24.385Z,14.45
2022-09-11T04:29:52.023Z,14.23
2022-09-11T04:32:20.004Z,14.24
2022-09-11T04:34:47.708Z,14.17
2022-09-11T04:37:16.525Z,14.14
2022-09-11T04:39:44.463Z,14.13
2022-09-11T04:42:12.251Z,13.98
2022-09-11T04:44:42.154Z,13.98
2022-09-11T04:47:09.859Z,14.00
2022-09-11T04:49:37.542Z,13.98
2022-09-11T04:52:07.212Z,13.94
2022-09-11T04:54:35.488Z,13.85
2022-09-11T04:57:03.757Z,14.02
2022-09-11T04:59:31.602Z,14.10
2022-09-11T05:02:00.762Z,14.15
2022-09-11T05:04:28.470Z,14.08
2022-09-11T05:06:56.169Z,14.05
2022-09-11T05:09:24.133Z,14.02
2022-09-11T05:11:51.818Z,14.06
2022-09-11T05:14:19.495Z,14.17
2022-09-11T05:16:47.257Z,14.12
2022-09-11T05:19:16.351Z,14.05
2022-09-11T05:21:44.016Z,14.04
2022-09-11T05:24:11.882Z,14.09
2022-09-11T05:26:39.710Z,14.13
2022-09-11T05:29:09.306Z,14.02
2022-09-11T05:31:37.535Z,14.02
2022-09-11T05:34:05.930Z,14.07
2022-09-11T05:36:35.417Z,14.17
2022-09-11T05:39:04.568Z,14.12
2022-09-11T05:41:32.275Z,14.20
2022-09-11T05:44:00.321Z,14.17
2022-09-11T05:46:28.057Z,14.30
2022-09-11T05:48:55.800Z,14.35
2022-09-11T05:51:23.830Z,14.26
2022-09-11T05:53:56.071Z,14.39
2022-09-11T05:56:25.488Z,14.69
2022-09-11T05:58:53.330Z,14.63
2022-09-11T06:01:23.188Z,14.78
2022-09-11T06:03:51.466Z,14.79
2022-09-11T06:06:21.138Z,14.92
2022-09-11T06:08:50.235Z,15.02
2022-09-11T06:11:20.951Z,15.05
2022-09-11T06:13:49.452Z,15.08
2022-09-11T06:16:19.133Z,15.05
2022-09-11T06:18:49.166Z,15.11
2022-09-11T06:21:19.144Z,15.10
2022-09-11T06:23:47.446Z,15.19
2022-09-11T06:26:18.073Z,15.18
2022-09-11T06:28:47.617Z,15.14
2022-09-11T06:31:17.312Z,15.29
2022-09-11T06:33:45.438Z,15.21
2022-09-11T06:36:14.637Z,15.30
2022-09-11T06:38:42.473Z,15.40
2022-09-11T06:41:13.946Z,15.51
2022-09-11T06:43:42.317Z,15.79
2022-09-11T06:46:13.536Z,15.99
2022-09-11T06:48:41.708Z,16.12
2022-09-11T06:51:12.349Z,16.19
2022-09-11T06:53:41.190Z,16.26
2022-09-11T06:56:12.572Z,16.42
2022-09-11T06:58:41.148Z,16.59
2022-09-11T07:01:12.212Z,16.72
2022-09-11T07:03:44.010Z,16.72
2022-09-11T07:06:12.078Z,16.66
2022-09-11T07:08:40.125Z,16.80
2022-09-11T07:11:09.144Z,16.93
2022-09-11T07:13:38.606Z,16.62
2022-09-11T07:16:08.850Z,16.76
2022-09-11T07:18:39.493Z,17.18
2022-09-11T07:21:07.880Z,17.35
2022-09-11T07:23:35.772Z,17.75
2022-09-11T07:26:04.817Z,18.04
2022-09-11T07:28:32.572Z,18.47
2022-09-11T07:31:10.513Z,17.90
2022-09-11T07:33:40.266Z,18.52
2022-09-11T07:36:12.135Z,19.19
2022-09-11T07:38:41.696Z,20.21
2022-09-11T07:41:10.826Z,20.35
2022-09-11T07:43:39.860Z,20.47
2022-09-11T07:46:08.570Z,20.11
2022-09-11T07:48:36.561Z,20.67
2022-09-11T07:51:07.350Z,21.03
2022-09-11T07:53:37.360Z,21.21
2022-09-11T07:56:06.510Z,22.07
2022-09-11T07:58:35.539Z,21.32
2022-09-11T08:01:05.300Z,22.23
2022-09-11T08:03:33.890Z,22.76
2022-09-11T08:06:02.573Z,22.30
2022-09-11T08:08:32.432Z,21.45
2022-09-11T08:11:05.195Z,22.00
2022-09-11T08:13:33.149Z,23.05
2022-09-11T08:16:01.568Z,23.85
2022-09-11T08:18:29.714Z,22.23
2022-09-11T08:21:03.207Z,21.19
2022-09-11T08:23:33.092Z,20.91
2022-09-11T08:26:08.109Z,22.37
2022-09-11T08:28:37.002Z,22.52
2022-09-11T08:31:06.288Z,23.30
2022-09-11T08:33:34.971Z,24.35
2022-09-11T08:36:05.161Z,24.73
2022-09-11T08:38:34.370Z,24.61
2022-09-11T08:41:12.937Z,23.77
2022-09-11T08:43:47.075Z,24.55
2022-09-11T08:46:15.129Z,24.28
2022-09-11T08:48:50.985Z,24.22
2022-09-11T08:51:19.239Z,24.17
2022-09-11T08:53:49.054Z,24.12
2022-09-11T08:56:22.357Z,23.12
2022-09-11T08:59:07.371Z,24.34
2022-09-11T09:01:43.692Z,25.04
2022-09-11T09:04:30.910Z,25.30
2022-09-11T09:07:05.534Z,25.82
2022-09-11T09:09:43.685Z,25.97
2022-09-11T09:12:21.195Z,24.24
2022-09-11T09:15:31.032Z,23.08
2022-09-11T09:18:02.478Z,23.36
2022-09-11T09:20:32.821Z,23.48
2022-09-11T09:23:04.089Z,23.61
2022-09-11T09:25:38.408Z,25.01
2022-09-11T09:28:15.924Z,24.58
2022-09-11T09:30:50.828Z,22.68
2022-09-11T09:33:30.775Z,21.60
2022-09-11T09:36:00.856Z,20.53
2022-09-11T09:38:31.607Z,21.14
2022-09-11T09:41:21.831Z,21.33
2022-09-11T09:43:58.203Z,20.91
2022-09-11T09:46:33.685Z,20.37
2022-09-11T09:49:01.759Z,19.92
2022-09-11T09:51:29.924Z,21.80
2022-09-11T09:54:02.074Z,23.47
2022-09-11T09:56:33.919Z,24.53
2022-09-11T09:59:03.040Z,25.57
2022-09-11T10:01:45.258Z,25.14
2022-09-11T10:04:17.809Z,26.45
2022-09-11T10:06:47.595Z,27.83
2022-09-11T10:09:24.112Z,26.95
2022-09-11T10:11:57.385Z,26.29
2022-09-11T10:14:49.694Z,27.96
2022-09-11T10:17:21.894Z,26.60
2022-09-11T10:19:56.975Z,26.59
2022-09-11T10:22:27.994Z,25.32
2022-09-11T10:25:02.378Z,23.56
2022-09-11T10:27:36.504Z,22.60
2022-09-11T10:30:05.102Z,22.79
2022-09-11T10:32:37.230Z,25.04
2022-09-11T10:35:10.326Z,23.91
2022-09-11T10:37:38.991Z,26.28
2022-09-11T10:40:09.241Z,26.86
2022-09-11T10:42:41.345Z,25.59
2022-09-11T10:45:16.868Z,23.12
2022-09-11T10:47:46.759Z,23.83
2022-09-11T10:50:23.804Z,22.83
2022-09-11T10:53:04.411Z,23.94
2022-09-11T10:55:37.884Z,26.50
2022-09-11T10:58:13.551Z,29.18
2022-09-11T11:00:41.593Z,29.79
2022-09-11T11:03:17.387Z,27.11
2022-09-11T11:05:54.944Z,27.84
2022-09-11T11:08:57.374Z,29.25
2022-09-11T11:11:40.188Z,29.44
2022-09-11T11:14:34.122Z,30.72
2022-09-11T11:17:09.771Z,26.60
2022-09-11T11:19:51.539Z,25.28
2022-09-11T11:22:34.478Z,24.98
2022-09-11T11:25:14.212Z,23.58
2022-09-11T11:28:18.980Z,22.76
2022-09-11T11:30:55.282Z,22.40
2022-09-11T11:33:54.287Z,21.51
2022-09-11T11:36:28.867Z,22.85
2022-09-11T11:39:01.969Z,21.61
2022-09-11T11:41:33.444Z,21.16
2022-09-11T11:44:03.925Z,22.23
2022-09-11T11:46:38.952Z,22.83
2022-09-11T11:49:12.177Z,25.74
2022-09-11T11:51:50.836Z,24.51
2022-09-11T11:54:24.328Z,23.04
2022-09-11T11:56:55.106Z,21.28
2022-09-11T11:59:31.869Z,20.40
2022-09-11T12:02:06.192Z,20.35
2022-09-11T12:04:43.670Z,21.10
2022-09-11T12:07:17.842Z,20.57
2022-09-11T12:09:50.094Z,20.99
2022-09-11T12:12:19.449Z,21.56
2022-09-11T12:14:52.518Z,23.89
2022-09-11T12:17:29.403Z,24.85
2022-09-11T12:20:34.377Z,26.26
2022-09-11T12:23:03.078Z,27.64
2022-09-11T12:26:17.103Z,27.80
2022-09-11T12:28:45.495Z,28.88
2022-09-11T12:31:14.643Z,29.50
2022-09-11T12:33:57.475Z,29.26
2022-09-11T12:36:36.928Z,29.41
2022-09-11T12:39:19.058Z,28.88
2022-09-11T12:41:46.934Z,29.43
2022-09-11T12:44:32.163Z,30.34
2022-09-11T12:47:11.932Z,30.27
2022-09-11T12:49:43.487Z,28.75
2022-09-11T12:52:26.927Z,28.38
2022-09-11T12:54:55.491Z,27.86
2022-09-11T12:57:28.858Z,27.23
2022-09-11T13:00:00.121Z,26.10
2022-09-11T13:02:35.437Z,25.12
2022-09-11T13:07:39.085Z,24.83
2022-09-11T13:10:20.232Z,25.19
2022-09-11T13:12:52.925Z,25.32
2022-09-11T13:15:41.898Z,25.85
2022-09-11T13:18:25.563Z,25.97
2022-09-11T13:21:14.082Z,26.01
2022-09-11T13:23:43.045Z,27.27
2022-09-11T13:26:17.049Z,27.83
2022-09-11T13:28:46.936Z,28.02
2022-09-11T13:31:19.474Z,29.55
2022-09-11T13:33:52.351Z,30.35
2022-09-11T13:36:25.139Z,31.01
2022-09-11T13:38:57.026Z,30.20
2022-09-11T13:41:29.776Z,29.42
2022-09-11T13:43:59.592Z,30.62
2022-09-11T13:46:31.493Z,27.49
2022-09-11T13:49:14.895Z,25.94
2022-09-11T13:51:46.680Z,25.79
2022-09-11T13:54:16.770Z,24.17
2022-09-11T13:56:47.380Z,24.60
2022-09-11T13:59:42.906Z,24.19
2022-09-11T14:02:28.187Z,23.04
2022-09-11T14:05:04.971Z,22.83
2022-09-11T14:07:36.079Z,22.74
2022-09-11T14:10:07.602Z,22.54
2022-09-11T14:12:47.118Z,22.34
2022-09-11T14:15:22.398Z,21.85
2022-09-11T14:17:50.325Z,22.02
2022-09-11T14:20:22.946Z,21.88
2022-09-11T14:22:57.469Z,21.95
2022-09-11T14:25:25.371Z,21.73
2022-09-11T14:27:53.266Z,21.74
2022-09-11T14:30:41.823Z,21.68
2022-09-11T14:33:24.706Z,21.98
2022-09-11T14:35:54.849Z,22.23
2022-09-11T14:38:26.201Z,22.50
2022-09-11T14:40:57.833Z,22.65
2022-09-11T14:43:31.100Z,23.30
2022-09-11T14:45:59.374Z,23.73
2022-09-11T14:48:28.630Z,24.32
2022-09-11T14:50:56.550Z,23.38
2022-09-11T14:53:29.689Z,23.27
2022-09-11T14:55:59.261Z,22.97
2022-09-11T14:58:27.899Z,22.86
2022-09-11T15:00:56.465Z,22.55
2022-09-11T15:03:25.641Z,22.08
2022-09-11T15:05:56.894Z,21.86
2022-09-11T15:08:26.717Z,21.94
2022-09-11T15:10:54.781Z,21.96
2022-09-11T15:13:22.877Z,22.20
2022-09-11T15:15:50.933Z,22.05
2022-09-11T15:18:19.921Z,21.95
2022-09-11T15:20:47.649Z,21.92
2022-09-11T15:23:16.474Z,21.98
2022-09-11T15:25:45.510Z,22.28
2022-09-11T15:28:13.205Z,22.06
2022-09-11T15:30:42.786Z,21.71
2022-09-11T15:33:11.151Z,21.47
2022-09-11T15:35:38.828Z,22.01
2022-09-11T15:38:07.197Z,21.89
2022-09-11T15:40:36.392Z,22.60
2022-09-11T15:43:05.486Z,23.63
2022-09-11T15:45:33.225Z,24.59
2022-09-11T15:48:01.938Z,25.51
2022-09-11T15:50:30.148Z,26.42
2022-09-11T15:52:59.830Z,26.72
2022-09-11T15:55:30.114Z,27.55
2022-09-11T15:58:00.753Z,27.19
2022-09-11T16:00:30.121Z,28.03
2022-09-11T16:02:57.789Z,28.08
2022-09-11T16:05:25.604Z,27.56
2022-09-11T16:07:53.270Z,28.40
2022-09-11T16:10:21.002Z,25.96
2022-09-11T16:12:48.657Z,26.08
2022-09-11T16:15:16.495Z,24.97
2022-09-11T16:17:45.533Z,24.36
2022-09-11T16:20:15.249Z,23.20
2022-09-11T16:22:42.992Z,21.95
2022-09-11T16:25:10.962Z,21.63
2022-09-11T16:27:38.705Z,21.01
2022-09-11T16:32:56.494Z,21.07
2022-09-11T16:35:25.565Z,21.16
2022-09-11T16:37:53.502Z,21.07
2022-09-11T16:40:21.252Z,20.59
2022-09-11T16:42:48.977Z,20.49
2022-09-11T16:45:16.835Z,20.57
2022-09-11T16:47:44.539Z,20.54
2022-09-11T16:50:14.606Z,20.41
2022-09-11T16:52:42.333Z,20.28
2022-09-11T16:55:10.726Z,20.34
2022-09-11T16:57:38.619Z,20.38
2022-09-11T17:00:07.768Z,20.27
2022-09-11T17:02:35.527Z,20.26
2022-09-11T17:05:03.586Z,20.35
2022-09-11T17:07:32.834Z,20.32
2022-09-11T17:10:00.520Z,20.25
2022-09-11T17:12:28.481Z,20.27
2022-09-11T17:14:56.161Z,20.16
2022-09-11T17:17:24.116Z,20.10
2022-09-11T17:19:51.856Z,19.87
2022-09-11T17:22:19.520Z,19.58
2022-09-11T17:24:48.587Z,19.55
2022-09-11T17:27:16.403Z,19.24
2022-09-11T17:29:44.947Z,18.98
2022-09-11T17:32:27.945Z,18.78
2022-09-11T17:34:56.259Z,18.38
2022-09-11T17:37:24.069Z,18.23
2022-09-11T17:39:53.661Z,18.15
2022-09-11T17:42:22.685Z,18.00
2022-09-11T17:44:50.652Z,17.98
2022-09-11T17:47:19.261Z,17.94
2022-09-11T17:49:46.983Z,17.79
2022-09-11T17:52:15.538Z,17.81
2022-09-11T17:54:43.397Z,17.70
2022-09-11T17:57:12.443Z,17.71
2022-09-11T17:59:40.185Z,17.59
2022-09-11T18:02:08.050Z,17.43
2022-09-11T18:04:36.027Z,17.27
2022-09-11T18:07:04.237Z,17.32
2022-09-11T18:09:32.094Z,17.17
2022-09-11T18:12:00.111Z,17.22
2022-09-11T18:14:29.248Z,17.10
2022-09-11T18:16:57.147Z,17.03
2022-09-11T18:19:24.850Z,16.98
2022-09-11T18:21:53.138Z,16.91
2022-09-11T18:24:21.195Z,16.85
2022-09-11T18:26:50.872Z,16.73
2022-09-11T18:29:20.302Z,16.62
2022-09-11T18:31:51.712Z,16.68
2022-09-11T18:34:21.438Z,16.64
2022-09-11T18:36:49.455Z,16.50
2022-09-11T18:39:19.470Z,16.64
2022-09-11T18:41:48.422Z,16.79
2022-09-11T18:44:19.814Z,16.80
2022-09-11T18:46:52.786Z,16.71
2022-09-11T18:49:21.330Z,16.55
2022-09-11T18:51:49.314Z,16.40
2022-09-11T18:54:20.071Z,16.27
2022-09-11T18:56:49.627Z,16.18
2022-09-11T18:59:17.739Z,16.25
2022-09-11T19:01:45.545Z,16.13
2022-09-11T19:04:16.316Z,16.17
2022-09-11T19:06:44.723Z,16.19
2022-09-11T19:09:13.428Z,16.20
2022-09-11T19:11:41.990Z,16.09
2022-09-11T19:14:11.757Z,16.01
2022-09-11T19:16:40.240Z,16.19
2022-09-11T19:19:08.758Z,16.34
2022-09-11T19:21:38.815Z,16.36
2022-09-11T19:24:07.803Z,16.36
2022-09-11T19:26:38.072Z,16.49
2022-09-11T19:29:06.847Z,16.53
2022-09-11T19:31:34.782Z,16.63
2022-09-11T19:34:02.833Z,16.79
2022-09-11T19:36:32.310Z,16.75
2022-09-11T19:39:01.493Z,16.87
2022-09-11T19:41:31.090Z,16.95
2022-09-11T19:44:00.563Z,16.88
2022-09-11T19:46:29.778Z,16.99
2022-09-11T19:49:00.560Z,17.07
2022-09-11T19:51:29.995Z,17.12
2022-09-11T19:54:00.556Z,17.08
2022-09-11T19:56:31.174Z,17.04
2022-09-11T19:59:00.329Z,16.88
2022-09-11T20:01:29.981Z,16.61
2022-09-11T20:04:00.927Z,16.51
2022-09-11T20:06:31.127Z,16.18
2022-09-11T20:09:20.147Z,16.02
2022-09-11T20:11:49.133Z,15.69
2022-09-11T20:14:17.327Z,15.63
2022-09-11T20:16:45.160Z,15.56
2022-09-11T20:19:14.838Z,15.58
2022-09-11T20:21:42.579Z,15.45
2022-09-11T20:24:10.305Z,15.37
2022-09-11T20:26:38.026Z,15.23
2022-09-11T20:29:09.404Z,15.23
2022-09-11T20:31:46.323Z,15.27
2022-09-11T20:34:14.434Z,15.16
2022-09-11T20:36:42.129Z,15.27
2022-09-11T20:39:12.953Z,15.07
2022-09-11T20:41:40.724Z,14.91
2022-09-11T20:44:10.322Z,14.79
2022-09-11T20:46:38.038Z,14.65
2022-09-11T20:49:06.308Z,14.57
2022-09-11T20:51:34.579Z,14.64
2022-09-11T20:54:02.970Z,14.68
2022-09-11T20:56:31.261Z,14.73
2022-09-11T20:59:00.021Z,14.59
2022-09-11T21:01:33.127Z,14.61
2022-09-11T21:04:02.849Z,14.51
2022-09-11T21:06:32.549Z,14.61
2022-09-11T21:09:02.127Z,14.55
2022-09-11T21:11:31.200Z,14.57
2022-09-11T21:13:59.750Z,14.60
2022-09-11T21:16:29.022Z,14.52
2022-09-11T21:18:59.366Z,14.44
2022-09-11T21:21:28.414Z,14.36
2022-09-11T21:23:56.714Z,14.41
2022-09-11T21:26:26.209Z,14.42
2022-09-11T21:28:54.025Z,14.47
2022-09-11T21:31:21.780Z,14.41
2022-09-11T21:33:51.043Z,14.39
2022-09-11T21:36:19.093Z,14.18
2022-09-11T21:38:47.079Z,14.26
2022-09-11T21:41:15.599Z,14.15
2022-09-11T21:43:43.563Z,14.21
2022-09-11T21:46:11.533Z,14.17
2022-09-11T21:48:40.926Z,14.17
2022-09-11T21:51:12.410Z,14.09
2022-09-11T21:53:41.657Z,14.15
2022-09-11T21:56:17.034Z,14.19
2022-09-11T21:58:44.897Z,14.19
2022-09-11T22:01:13.670Z,14.19
2022-09-11T22:03:41.609Z,14.18
2022-09-11T22:06:11.892Z,14.16
2022-09-11T22:08:41.070Z,14.10
2022-09-11T22:11:08.908Z,14.19
2022-09-11T22:13:37.363Z,14.13
2022-09-11T22:16:07.930Z,14.12
2022-09-11T22:18:36.175Z,14.06
2022-09-11T22:21:04.455Z,14.07
2022-09-11T22:23:33.525Z,14.10
2022-09-11T22:26:02.991Z,14.01
2022-09-11T22:28:30.870Z,13.81
2022-09-11T22:30:58.644Z,13.77
2022-09-11T22:33:26.467Z,13.80
2022-09-11T22:35:54.119Z,13.77
2022-09-11T22:38:21.774Z,13.67
2022-09-11T22:40:54.746Z,13.68
2022-09-11T22:43:22.428Z,13.56
2022-09-11T22:45:51.817Z,13.65
2022-09-11T22:48:20.075Z,13.67
2022-09-11T22:50:47.850Z,13.67
2022-09-11T22:53:15.702Z,13.45
2022-09-11T22:55:44.789Z,13.36
2022-09-11T22:58:15.210Z,13.33
2022-09-11T23:00:43.932Z,13.48
2022-09-11T23:03:12.053Z,13.36
2022-09-11T23:05:57.304Z,13.31
2022-09-11T23:08:28.331Z,13.16
2022-09-11T23:10:59.406Z,13.04
2022-09-11T23:13:29.904Z,12.98
2022-09-11T23:15:58.226Z,12.96
2022-09-11T23:18:27.813Z,12.93
2022-09-11T23:20:56.116Z,13.00
2022-09-11T23:23:24.977Z,13.00
2022-09-11T23:25:53.141Z,13.10
2022-09-11T23:28:20.931Z,12.89
2022-09-11T23:30:49.979Z,12.98
2022-09-11T23:33:17.725Z,12.97
2022-09-11T23:35:45.402Z,12.89
2022-09-11T23:38:13.113Z,12.84
2022-09-11T23:40:40.863Z,12.73
2022-09-11T23:43:08.530Z,12.75
2022-09-11T23:45:36.210Z,12.79
2022-09-11T23:48:05.490Z,12.72
2022-09-11T23:50:33.181Z,12.72
2022-09-11T23:53:00.890Z,12.69
2022-09-11T23:55:28.622Z,12.67
2022-09-11T23:57:56.277Z,12.72
